createdAt,value
2022-08-07T00:02:56.097Z,18.90
2022-08-07T00:05:24.611Z,18.80
2022-08-07T00:08:00.229Z,18.80
2022-08-07T00:13:09.683Z,18.70
2022-08-07T00:15:51.867Z,18.60
2022-08-07T00:18:23.981Z,18.50
2022-08-07T00:25:58.219Z,18.50
2022-08-07T00:28:34.140Z,18.40
2022-08-07T00:31:06.230Z,18.40
2022-08-07T00:33:35.513Z,18.40
2022-08-07T00:44:01.580Z,18.30
2022-08-07T00:46:18.918Z,18.20
2022-08-07T00:48:49.917Z,18.20
2022-08-07T00:59:05.017Z,18.00
2022-08-07T01:06:53.818Z,17.90
2022-08-07T01:15:03.699Z,17.60
2022-08-07T01:17:33.456Z,17.70
2022-08-07T01:20:06.530Z,17.60
2022-08-07T01:22:37.981Z,17.50
2022-08-07T01:28:03.974Z,17.60
2022-08-07T01:30:33.410Z,17.60
2022-08-07T01:38:25.609Z,17.50
2022-08-07T01:40:56.077Z,17.50
2022-08-07T01:43:27.195Z,17.50
2022-08-07T01:46:04.380Z,17.40
2022-08-07T01:51:24.527Z,17.30
2022-08-07T01:54:00.775Z,17.30
2022-08-07T01:56:49.367Z,17.20
2022-08-07T01:59:22.911Z,17.20
2022-08-07T02:02:00.182Z,17.20
2022-08-07T02:04:39.797Z,17.10
2022-08-07T02:07:36.235Z,17.10
2022-08-07T02:10:19.935Z,17.00
2022-08-07T02:12:50.324Z,17.00
2022-08-07T02:15:23.269Z,17.00
2022-08-07T02:17:56.475Z,17.00
2022-08-07T02:20:25.680Z,16.90
2022-08-07T02:22:59.915Z,16.90
2022-08-07T02:26:10.187Z,16.80
2022-08-07T02:28:24.673Z,16.80
2022-08-07T02:33:32.755Z,16.80
2022-08-07T02:36:30.487Z,16.80
2022-08-07T02:38:56.751Z,16.80
2022-08-07T02:41:33.581Z,16.80
2022-08-07T02:44:06.485Z,16.80
2022-08-07T02:46:36.952Z,16.70
2022-08-07T02:51:42.563Z,19.50
2022-08-07T02:54:21.313Z,16.70
2022-08-07T02:56:55.864Z,16.70
2022-08-07T02:59:27.861Z,16.60
2022-08-07T03:02:01.187Z,16.60
2022-08-07T03:04:32.211Z,16.60
2022-08-07T03:07:07.116Z,16.60
2022-08-07T03:09:43.527Z,16.50
2022-08-07T03:12:22.242Z,16.50
2022-08-07T03:14:52.814Z,16.50
2022-08-07T03:17:21.964Z,16.50
2022-08-07T03:19:54.653Z,16.50
2022-08-07T03:22:29.666Z,16.40
2022-08-07T03:24:59.853Z,16.40
2022-08-07T03:27:59.564Z,16.40
2022-08-07T03:32:58.335Z,16.30
2022-08-07T03:35:43.561Z,16.20
2022-08-07T03:38:14.622Z,16.20
2022-08-07T03:43:15.285Z,16.20
2022-08-07T03:50:52.139Z,16.10
2022-08-07T03:56:32.804Z,16.10
2022-08-07T03:59:10.047Z,16.10
2022-08-07T04:01:45.244Z,16.10
2022-08-07T04:04:17.350Z,16.10
2022-08-07T04:14:43.664Z,15.90
2022-08-07T04:25:02.507Z,15.90
2022-08-07T04:30:35.725Z,15.90
2022-08-07T04:38:08.368Z,15.90
2022-08-07T04:40:52.243Z,16.00
2022-08-07T04:44:11.264Z,15.90
2022-08-07T04:46:25.770Z,15.90
2022-08-07T04:49:14.914Z,15.90
2022-08-07T04:51:54.733Z,15.90
2022-08-07T04:54:32.586Z,15.90
2022-08-07T04:58:10.642Z,15.90
2022-08-07T05:00:11.223Z,15.90
2022-08-07T05:02:52.584Z,15.90
2022-08-07T05:05:53.255Z,16.00
2022-08-07T05:08:59.286Z,16.00
2022-08-07T05:11:19.568Z,16.10
2022-08-07T05:14:56.079Z,16.10
2022-08-07T05:16:52.736Z,16.10
2022-08-07T05:19:25.699Z,16.10
2022-08-07T05:22:04.542Z,16.20
2022-08-07T05:24:39.497Z,16.20
2022-08-07T05:27:14.539Z,17.60
2022-08-07T05:30:00.841Z,16.30
2022-08-07T05:32:29.463Z,16.30
2022-08-07T05:34:59.818Z,16.30
2022-08-07T05:37:31.307Z,16.30
2022-08-07T05:40:17.308Z,16.40
2022-08-07T05:42:56.297Z,16.40
2022-08-07T05:45:46.782Z,16.50
2022-08-07T05:48:14.903Z,16.60
2022-08-07T05:50:44.575Z,16.60
2022-08-07T05:56:05.637Z,16.70
2022-08-07T05:58:37.419Z,16.80
2022-08-07T06:01:10.426Z,16.90
2022-08-07T06:03:56.598Z,17.00
2022-08-07T06:06:32.345Z,17.10
2022-08-07T06:09:04.572Z,17.20
2022-08-07T06:11:34.507Z,17.20
2022-08-07T06:14:12.257Z,17.30
2022-08-07T06:16:56.183Z,17.40
2022-08-07T06:19:58.053Z,17.50
2022-08-07T06:22:23.982Z,17.60
2022-08-07T06:24:57.738Z,17.70
2022-08-07T06:28:00.655Z,17.70
2022-08-07T06:30:32.063Z,17.90
2022-08-07T06:33:04.782Z,18.10
2022-08-07T06:35:45.384Z,18.20
2022-08-07T06:38:19.864Z,18.40
2022-08-07T06:40:53.018Z,18.50
2022-08-07T06:43:23.784Z,18.60
2022-08-07T06:45:52.061Z,18.70
2022-08-07T06:48:25.058Z,18.80
2022-08-07T06:50:55.880Z,18.90
2022-08-07T06:55:27.265Z,19.00
2022-08-07T06:56:17.417Z,19.10
2022-08-07T07:00:12.662Z,19.30
2022-08-07T07:01:43.641Z,19.40
2022-08-07T07:04:32.063Z,19.50
2022-08-07T07:07:19.081Z,19.70
2022-08-07T07:09:53.122Z,19.80
2022-08-07T07:12:33.682Z,19.90
2022-08-07T07:15:09.084Z,20.00
2022-08-07T07:17:59.663Z,20.10
2022-08-07T07:20:34.529Z,23.10
2022-08-07T07:24:08.152Z,20.30
2022-08-07T07:26:33.481Z,20.40
2022-08-07T07:29:39.656Z,20.50
2022-08-07T07:31:47.111Z,20.60
2022-08-07T07:34:20.935Z,21.80
2022-08-07T07:36:54.178Z,21.00
2022-08-07T07:39:23.469Z,23.30
2022-08-07T07:42:13.218Z,20.90
2022-08-07T07:44:49.572Z,21.00
2022-08-07T07:47:23.642Z,21.10
2022-08-07T07:50:34.580Z,21.20
2022-08-07T07:52:46.931Z,21.40
2022-08-07T07:55:17.129Z,21.30
2022-08-07T07:57:51.927Z,21.40
2022-08-07T08:00:29.850Z,21.50
2022-08-07T08:03:08.311Z,21.70
2022-08-07T08:05:50.833Z,21.80
2022-08-07T08:08:34.741Z,23.70
2022-08-07T08:11:05.846Z,22.00
2022-08-07T08:13:54.995Z,22.10
2022-08-07T08:16:31.196Z,22.10
2022-08-07T08:19:09.546Z,22.20
2022-08-07T08:22:05.932Z,22.30
2022-08-07T08:25:04.480Z,22.30
2022-08-07T08:27:39.532Z,23.70
2022-08-07T08:30:19.383Z,22.50
2022-08-07T08:32:53.552Z,22.60
2022-08-07T08:35:24.964Z,22.70
2022-08-07T08:38:03.433Z,22.70
2022-08-07T08:40:36.123Z,22.80
2022-08-07T08:43:11.739Z,22.90
2022-08-07T08:45:59.003Z,23.10
2022-08-07T08:48:38.399Z,23.00
2022-08-07T08:51:14.816Z,23.10
2022-08-07T08:54:01.864Z,23.20
2022-08-07T08:56:34.146Z,23.20
2022-08-07T08:59:12.860Z,25.10
2022-08-07T09:01:49.259Z,23.40
2022-08-07T09:04:26.105Z,25.10
2022-08-07T09:07:02.034Z,23.50
2022-08-07T09:09:56.797Z,26.10
2022-08-07T09:12:41.500Z,23.60
2022-08-07T09:16:20.215Z,23.80
2022-08-07T09:18:32.896Z,23.90
2022-08-07T09:21:34.098Z,24.00
2022-08-07T09:24:54.123Z,24.10
2022-08-07T09:27:09.064Z,24.10
2022-08-07T09:30:03.873Z,24.20
2022-08-07T09:32:57.854Z,24.40
2022-08-07T09:36:05.014Z,24.40
2022-08-07T09:38:36.359Z,24.50
2022-08-07T09:41:14.174Z,24.60
2022-08-07T09:44:05.779Z,24.70
2022-08-07T09:47:50.658Z,24.80
2022-08-07T09:50:02.069Z,24.90
2022-08-07T09:52:51.555Z,25.00
2022-08-07T09:55:29.544Z,25.10
2022-08-07T09:58:51.084Z,25.10
2022-08-07T10:01:51.375Z,25.20
2022-08-07T10:04:57.231Z,25.30
2022-08-07T10:07:53.088Z,25.30
2022-08-07T10:11:16.371Z,25.40
2022-08-07T10:14:00.533Z,25.50
2022-08-07T10:16:49.467Z,25.70
2022-08-07T10:19:30.393Z,25.70
2022-08-07T10:22:24.900Z,25.70
2022-08-07T10:25:22.747Z,26.00
2022-08-07T10:28:18.504Z,26.00
2022-08-07T10:31:00.226Z,26.20
2022-08-07T10:34:06.748Z,26.30
2022-08-07T10:36:55.892Z,26.30
2022-08-07T10:39:41.730Z,26.40
2022-08-07T10:42:35.190Z,26.40
2022-08-07T10:45:16.591Z,26.50
2022-08-07T10:47:54.497Z,26.60
2022-08-07T10:50:32.889Z,26.60
2022-08-07T10:53:09.240Z,25.30
2022-08-07T10:55:54.613Z,26.70
2022-08-07T10:58:40.331Z,26.90
2022-08-07T11:01:35.678Z,26.90
2022-08-07T11:04:31.939Z,27.90
2022-08-07T11:07:15.135Z,27.00
2022-08-07T11:10:09.858Z,27.10
2022-08-07T11:12:49.280Z,27.20
2022-08-07T11:15:37.483Z,30.30
2022-08-07T11:18:14.463Z,27.30
2022-08-07T11:20:52.487Z,27.30
2022-08-07T11:23:36.170Z,27.80
2022-08-07T11:26:13.079Z,28.30
2022-08-07T11:28:53.355Z,27.50
2022-08-07T11:31:33.297Z,27.60
2022-08-07T11:34:17.059Z,30.40
2022-08-07T11:37:05.101Z,27.70
2022-08-07T11:40:04.407Z,27.90
2022-08-07T11:42:41.821Z,27.90
2022-08-07T11:45:20.426Z,29.10
2022-08-07T11:48:18.214Z,30.90
2022-08-07T11:51:40.714Z,28.10
2022-08-07T11:54:25.577Z,28.10
2022-08-07T11:57:12.607Z,28.20
2022-08-07T12:00:10.621Z,28.20
2022-08-07T12:03:45.199Z,28.30
2022-08-07T12:06:44.897Z,28.40
2022-08-07T12:09:29.616Z,28.50
2022-08-07T12:12:10.950Z,28.50
2022-08-07T12:14:56.162Z,28.50
2022-08-07T12:17:38.261Z,31.90
2022-08-07T12:20:21.139Z,28.40
2022-08-07T12:23:17.790Z,28.40
2022-08-07T12:26:21.961Z,28.40
2022-08-07T12:28:49.785Z,28.50
2022-08-07T12:31:37.647Z,28.50
2022-08-07T12:34:19.313Z,28.50
2022-08-07T12:36:49.458Z,29.60
2022-08-07T12:39:44.272Z,28.60
2022-08-07T12:42:13.311Z,28.70
2022-08-07T12:44:45.113Z,28.70
2022-08-07T12:47:37.728Z,28.80
2022-08-07T12:50:38.588Z,30.10
2022-08-07T12:53:18.546Z,28.90
2022-08-07T12:56:04.068Z,29.00
2022-08-07T12:58:39.932Z,29.10
2022-08-07T13:01:21.201Z,29.20
2022-08-07T13:04:31.742Z,30.90
2022-08-07T13:08:11.868Z,29.80
2022-08-07T13:10:37.797Z,29.20
2022-08-07T13:13:46.775Z,30.10
2022-08-07T13:16:28.065Z,29.30
2022-08-07T13:19:18.092Z,29.40
2022-08-07T13:22:01.991Z,29.40
2022-08-07T13:24:43.856Z,29.40
2022-08-07T13:28:05.930Z,29.50
2022-08-07T13:30:19.679Z,29.50
2022-08-07T13:33:16.418Z,32.50
2022-08-07T13:36:05.369Z,29.60
2022-08-07T13:38:41.941Z,29.70
2022-08-07T13:41:22.023Z,29.70
2022-08-07T13:43:56.169Z,30.90
2022-08-07T13:46:37.680Z,29.80
2022-08-07T13:50:31.538Z,29.80
2022-08-07T13:52:32.039Z,29.80
2022-08-07T13:54:57.079Z,29.80
2022-08-07T13:57:32.145Z,29.80
2022-08-07T14:00:26.246Z,29.80
2022-08-07T14:02:59.406Z,29.80
2022-08-07T14:05:37.196Z,31.70
2022-08-07T14:08:08.689Z,29.80
2022-08-07T14:10:42.181Z,29.80
2022-08-07T14:13:16.303Z,29.90
2022-08-07T14:15:51.275Z,29.90
2022-08-07T14:18:29.603Z,29.90
2022-08-07T14:21:07.902Z,30.00
2022-08-07T14:24:01.107Z,30.00
2022-08-07T14:26:33.430Z,30.20
2022-08-07T14:30:04.765Z,30.30
2022-08-07T14:31:59.358Z,30.40
2022-08-07T14:34:30.836Z,33.40
2022-08-07T14:37:02.985Z,30.60
2022-08-07T14:40:14.608Z,30.70
2022-08-07T14:42:27.475Z,33.20
2022-08-07T14:45:21.738Z,31.70
2022-08-07T14:47:58.674Z,31.30
2022-08-07T14:50:31.595Z,31.40
2022-08-07T14:53:08.788Z,31.60
2022-08-07T14:55:55.655Z,31.60
2022-08-07T14:58:28.675Z,31.70
2022-08-07T15:01:00.077Z,31.60
2022-08-07T15:06:47.910Z,31.70
2022-08-07T15:09:59.209Z,31.80
2022-08-07T15:12:10.320Z,32.70
2022-08-07T15:14:59.622Z,32.10
2022-08-07T15:17:54.829Z,32.10
2022-08-07T15:20:30.654Z,34.50
2022-08-07T15:23:20.470Z,34.60
2022-08-07T15:25:55.761Z,32.40
2022-08-07T15:31:57.853Z,32.70
2022-08-07T15:34:15.007Z,36.10
2022-08-07T15:37:04.013Z,33.10
2022-08-07T15:42:46.181Z,33.40
2022-08-07T15:45:24.035Z,33.60
2022-08-07T15:51:08.560Z,33.70
2022-08-07T15:53:51.730Z,33.80
2022-08-07T15:56:33.143Z,33.90
2022-08-07T15:59:03.847Z,33.80
2022-08-07T16:01:38.502Z,33.70
2022-08-07T16:04:15.144Z,33.70
2022-08-07T16:06:50.294Z,33.60
2022-08-07T16:09:23.390Z,33.60
2022-08-07T16:12:28.703Z,35.20
2022-08-07T16:15:05.970Z,33.60
2022-08-07T16:18:01.521Z,33.60
2022-08-07T16:20:44.202Z,33.60
2022-08-07T16:23:54.782Z,33.70
2022-08-07T16:26:59.294Z,33.90
2022-08-07T16:30:09.831Z,34.10
2022-08-07T16:32:38.749Z,35.60
2022-08-07T16:35:52.437Z,34.40
2022-08-07T16:38:59.877Z,34.50
2022-08-07T16:41:54.223Z,34.30
2022-08-07T16:47:58.954Z,34.30
2022-08-07T16:50:52.788Z,34.10
2022-08-07T16:54:06.225Z,33.80
2022-08-07T16:56:46.643Z,33.40
2022-08-07T16:59:25.019Z,33.10
2022-08-07T17:03:04.942Z,32.60
2022-08-07T17:06:19.485Z,32.20
2022-08-07T17:09:08.790Z,31.70
2022-08-07T17:12:03.952Z,31.40
2022-08-07T17:14:33.353Z,31.00
2022-08-07T17:17:07.217Z,30.70
2022-08-07T17:20:02.211Z,30.40
2022-08-07T17:22:38.237Z,29.90
2022-08-07T17:25:15.459Z,29.90
2022-08-07T17:27:59.258Z,29.70
2022-08-07T17:30:37.099Z,29.40
2022-08-07T17:34:08.584Z,29.30
2022-08-07T17:36:27.993Z,29.00
2022-08-07T17:39:10.131Z,29.00
2022-08-07T17:42:03.992Z,28.70
2022-08-07T17:44:54.508Z,30.40
2022-08-07T17:47:38.011Z,28.10
2022-08-07T17:50:19.117Z,27.90
2022-08-07T17:52:55.290Z,27.90
2022-08-07T17:55:56.578Z,27.90
2022-08-07T17:58:31.178Z,27.80
2022-08-07T18:01:21.098Z,27.80
2022-08-07T18:04:16.504Z,27.70
2022-08-07T18:07:19.328Z,27.60
2022-08-07T18:10:07.254Z,27.50
2022-08-07T18:12:58.180Z,27.50
2022-08-07T18:15:33.020Z,27.40
2022-08-07T18:18:46.372Z,28.40
2022-08-07T18:21:29.564Z,27.30
2022-08-07T18:24:07.035Z,27.20
2022-08-07T18:27:02.792Z,27.00
2022-08-07T18:30:07.343Z,26.90
2022-08-07T18:33:10.538Z,26.90
2022-08-07T18:35:53.566Z,26.80
2022-08-07T18:38:56.752Z,26.80
2022-08-07T18:41:45.182Z,26.70
2022-08-07T18:44:30.288Z,26.60
2022-08-07T18:47:06.235Z,26.60
2022-08-07T18:50:19.275Z,26.50
2022-08-07T18:52:54.469Z,26.50
2022-08-07T18:55:40.938Z,26.40
2022-08-07T18:58:32.921Z,26.40
2022-08-07T19:02:19.300Z,26.40
2022-08-07T19:04:17.223Z,26.30
2022-08-07T19:07:04.214Z,26.30
2022-08-07T19:09:55.876Z,26.20
2022-08-07T19:12:35.128Z,25.90
2022-08-07T19:16:02.804Z,25.90
2022-08-07T19:18:34.595Z,25.90
2022-08-07T19:21:44.299Z,25.90
2022-08-07T19:24:30.487Z,25.90
2022-08-07T19:28:58.566Z,25.90
2022-08-07T19:31:04.683Z,25.90
2022-08-07T19:32:47.431Z,25.80
2022-08-07T19:35:26.681Z,25.70
2022-08-07T19:37:59.559Z,25.70
2022-08-07T19:40:34.641Z,25.70
2022-08-07T19:43:21.643Z,25.60
2022-08-07T19:45:53.120Z,25.60
2022-08-07T19:48:42.914Z,25.50
2022-08-07T19:51:20.396Z,25.40
2022-08-07T19:54:32.671Z,25.20
2022-08-07T19:57:51.782Z,25.20
2022-08-07T19:59:41.655Z,25.20
2022-08-07T20:02:19.173Z,25.20
2022-08-07T20:04:52.089Z,25.20
2022-08-07T20:07:46.466Z,25.20
2022-08-07T20:10:38.345Z,25.10
2022-08-07T20:13:23.464Z,25.10
2022-08-07T20:15:57.891Z,25.00
2022-08-07T20:18:32.841Z,24.90
2022-08-07T20:21:21.132Z,24.90
2022-08-07T20:23:57.832Z,24.80
2022-08-07T20:26:32.501Z,24.70
2022-08-07T20:29:17.017Z,24.70
2022-08-07T20:32:01.910Z,24.60
2022-08-07T20:34:49.180Z,24.50
2022-08-07T20:37:24.379Z,24.40
2022-08-07T20:40:03.159Z,24.30
2022-08-07T20:42:34.373Z,24.20
2022-08-07T20:45:04.340Z,24.10
2022-08-07T20:47:57.767Z,24.00
2022-08-07T20:50:29.200Z,24.00
2022-08-07T20:52:59.362Z,23.90
2022-08-07T20:55:32.025Z,23.80
2022-08-07T20:58:11.792Z,23.70
2022-08-07T21:00:47.627Z,23.70
2022-08-07T21:03:19.302Z,23.60
2022-08-07T21:05:57.043Z,23.50
2022-08-07T21:08:38.201Z,23.40
2022-08-07T21:11:14.416Z,23.40
2022-08-07T21:14:16.710Z,23.30
2022-08-07T21:16:56.304Z,23.30
2022-08-07T21:19:32.229Z,23.20
2022-08-07T21:22:19.198Z,23.10
2022-08-07T21:25:12.131Z,23.10
2022-08-07T21:28:02.125Z,23.00
2022-08-07T21:30:38.713Z,22.90
2022-08-07T21:33:17.406Z,22.90
2022-08-07T21:36:06.162Z,22.80
2022-08-07T21:38:50.331Z,22.70
2022-08-07T21:41:27.886Z,22.60
2022-08-07T21:44:14.715Z,22.60
2022-08-07T21:47:01.408Z,22.50
2022-08-07T21:49:40.818Z,22.30
2022-08-07T21:52:35.108Z,22.40
2022-08-07T21:55:13.154Z,22.40
2022-08-07T21:58:05.731Z,22.30
2022-08-07T22:00:37.955Z,22.30
2022-08-07T22:03:16.707Z,22.20
2022-08-07T22:05:52.342Z,22.20
2022-08-07T22:08:23.364Z,22.20
2022-08-07T22:10:58.837Z,22.10
2022-08-07T22:13:50.504Z,22.10
2022-08-07T22:16:44.691Z,22.00
2022-08-07T22:19:18.169Z,21.90
2022-08-07T22:22:04.455Z,21.90
2022-08-07T22:24:58.629Z,21.80
2022-08-07T22:28:07.509Z,21.80
2022-08-07T22:30:35.712Z,21.70
2022-08-07T22:33:10.236Z,21.70
2022-08-07T22:35:42.812Z,21.60
2022-08-07T22:38:24.149Z,21.60
2022-08-07T22:40:59.898Z,21.50
2022-08-07T22:43:34.234Z,21.50
2022-08-07T22:47:02.948Z,21.40
2022-08-07T22:49:33.997Z,21.40
2022-08-07T22:52:19.580Z,21.30
2022-08-07T22:55:31.797Z,21.20
2022-08-07T22:58:21.448Z,21.20
2022-08-07T23:01:08.631Z,21.10
2022-08-07T23:03:58.786Z,21.10
2022-08-07T23:06:51.848Z,21.00
2022-08-07T23:10:05.950Z,21.00
2022-08-07T23:12:35.654Z,21.00
2022-08-07T23:15:21.855Z,20.90
2022-08-07T23:18:13.737Z,20.80
2022-08-07T23:21:04.775Z,20.80
2022-08-07T23:24:16.892Z,20.80
2022-08-07T23:26:59.163Z,20.70
2022-08-07T23:30:37.889Z,20.70
2022-08-07T23:34:34.243Z,20.60
2022-08-07T23:35:55.752Z,20.60
2022-08-07T23:38:37.000Z,20.60
2022-08-07T23:41:33.249Z,20.50
2022-08-07T23:44:35.631Z,20.50
2022-08-07T23:47:23.739Z,20.40
2022-08-07T23:50:16.143Z,20.40
2022-08-07T23:53:08.847Z,20.30
2022-08-07T23:55:55.553Z,20.30
2022-08-07T23:58:32.124Z,20.20
